createdAt,value
2023-06-07T00:00:39.825Z,3.50
2023-06-07T00:02:44.758Z,3.65
2023-06-07T00:04:47.689Z,3.60
2023-06-07T00:06:50.349Z,3.58
2023-06-07T00:08:53.953Z,3.20
2023-06-07T00:10:56.675Z,3.65
2023-06-07T00:13:01.060Z,3.10
2023-06-07T00:15:03.802Z,3.47
2023-06-07T00:17:06.592Z,3.13
2023-06-07T00:19:09.403Z,3.60
2023-06-07T00:21:12.127Z,2.97
2023-06-07T00:23:16.826Z,3.92
2023-06-07T00:25:19.428Z,3.40
2023-06-07T00:27:22.092Z,3.60
2023-06-07T00:29:26.330Z,3.63
2023-06-07T00:31:29.056Z,3.30
2023-06-07T00:33:31.775Z,3.33
2023-06-07T00:35:34.371Z,3.20
2023-06-07T00:37:37.197Z,3.58
2023-06-07T00:39:39.816Z,3.72
2023-06-07T00:41:42.386Z,4.07
2023-06-07T00:43:46.050Z,3.45
2023-06-07T00:45:50.190Z,3.50
2023-06-07T00:47:53.067Z,3.42
2023-06-07T00:49:55.948Z,3.58
2023-06-07T00:51:58.838Z,7.57
2023-06-07T00:54:02.685Z,3.42
2023-06-07T00:56:06.526Z,3.40
2023-06-07T00:58:09.800Z,3.40
2023-06-07T01:00:14.662Z,3.47
2023-06-07T01:02:21.595Z,3.05
2023-06-07T01:04:25.450Z,3.53
2023-06-07T01:06:28.142Z,3.13
2023-06-07T01:08:31.167Z,3.30
2023-06-07T01:10:33.808Z,3.33
2023-06-07T01:12:37.323Z,3.35
2023-06-07T01:14:40.923Z,3.40
2023-06-07T01:16:45.394Z,3.85
2023-06-07T01:18:49.717Z,3.47
2023-06-07T01:20:55.409Z,3.53
2023-06-07T01:22:59.770Z,3.53
2023-06-07T01:25:06.033Z,3.28
2023-06-07T01:27:09.660Z,3.35
2023-06-07T01:29:13.453Z,3.55
2023-06-07T01:31:16.773Z,3.53
2023-06-07T01:33:19.840Z,3.30
2023-06-07T01:35:23.733Z,3.10
2023-06-07T01:37:27.188Z,3.47
2023-06-07T01:39:31.583Z,3.45
2023-06-07T01:41:36.317Z,3.28
2023-06-07T01:43:39.784Z,3.38
2023-06-07T01:45:42.589Z,3.42
2023-06-07T01:47:45.687Z,3.35
2023-06-07T01:49:48.676Z,3.40
2023-06-07T01:51:51.313Z,3.45
2023-06-07T01:53:53.998Z,3.42
2023-06-07T01:56:00.533Z,3.50
2023-06-07T01:58:08.090Z,3.70
2023-06-07T02:00:18.513Z,3.20
2023-06-07T02:02:26.151Z,3.20
2023-06-07T02:04:30.317Z,3.40
2023-06-07T02:06:38.074Z,3.33
2023-06-07T02:08:41.761Z,3.20
2023-06-07T02:10:44.423Z,3.42
2023-06-07T02:12:47.646Z,3.45
2023-06-07T02:14:53.529Z,3.60
2023-06-07T02:16:56.447Z,3.50
2023-06-07T02:18:59.809Z,3.33
2023-06-07T02:21:02.445Z,3.10
2023-06-07T02:23:05.247Z,3.30
2023-06-07T02:25:09.737Z,3.58
2023-06-07T02:27:12.799Z,3.33
2023-06-07T02:29:16.800Z,3.38
2023-06-07T02:31:21.686Z,3.22
2023-06-07T02:33:26.240Z,3.63
2023-06-07T02:35:29.079Z,3.85
2023-06-07T02:37:31.768Z,3.40
2023-06-07T02:39:34.538Z,3.22
2023-06-07T02:41:37.335Z,3.38
2023-06-07T02:43:40.255Z,3.33
2023-06-07T02:45:42.835Z,3.50
2023-06-07T02:47:47.566Z,3.50
2023-06-07T02:49:50.206Z,3.33
2023-06-07T02:51:52.925Z,3.28
2023-06-07T02:53:55.799Z,3.42
2023-06-07T02:55:58.514Z,3.60
2023-06-07T02:58:01.327Z,3.28
2023-06-07T03:00:11.902Z,3.40
2023-06-07T03:02:14.681Z,3.42
2023-06-07T03:04:19.777Z,3.60
2023-06-07T03:06:22.439Z,3.50
2023-06-07T03:08:25.076Z,4.03
2023-06-07T03:10:27.833Z,3.50
2023-06-07T03:12:30.672Z,3.47
2023-06-07T03:14:33.287Z,3.38
2023-06-07T03:16:35.944Z,3.92
2023-06-07T03:18:38.600Z,3.60
2023-06-07T03:20:42.722Z,3.30
2023-06-07T03:22:46.873Z,3.55
2023-06-07T03:24:50.269Z,3.47
2023-06-07T03:26:53.508Z,3.55
2023-06-07T03:28:57.537Z,3.70
2023-06-07T03:31:00.250Z,3.50
2023-06-07T03:33:03.379Z,3.60
2023-06-07T03:35:06.813Z,4.20
2023-06-07T03:37:10.789Z,3.75
2023-06-07T03:39:13.464Z,3.70
2023-06-07T03:41:16.083Z,3.65
2023-06-07T03:43:18.762Z,3.42
2023-06-07T03:45:21.448Z,3.78
2023-06-07T03:47:24.386Z,3.63
2023-06-07T03:49:27.064Z,3.75
2023-06-07T03:51:29.626Z,3.47
2023-06-07T03:53:33.781Z,3.25
2023-06-07T03:55:37.112Z,3.60
2023-06-07T03:57:39.752Z,3.58
2023-06-07T03:59:42.600Z,3.25
2023-06-07T04:01:45.503Z,3.70
2023-06-07T04:03:48.443Z,3.40
2023-06-07T04:05:51.361Z,3.80
2023-06-07T04:07:54.401Z,3.70
2023-06-07T04:09:58.449Z,3.78
2023-06-07T04:12:02.790Z,3.95
2023-06-07T04:14:05.633Z,3.60
2023-06-07T04:16:08.343Z,3.70
2023-06-07T04:18:11.368Z,3.67
2023-06-07T04:20:15.918Z,3.92
2023-06-07T04:22:19.471Z,3.67
2023-06-07T04:24:22.227Z,3.42
2023-06-07T04:26:27.033Z,3.65
2023-06-07T04:28:31.283Z,3.17
2023-06-07T04:30:37.729Z,3.53
2023-06-07T04:32:40.583Z,3.92
2023-06-07T04:34:46.744Z,3.85
2023-06-07T04:36:50.614Z,3.50
2023-06-07T04:38:58.435Z,3.65
2023-06-07T04:41:02.177Z,3.70
2023-06-07T04:43:07.019Z,3.60
2023-06-07T04:45:11.034Z,3.90
2023-06-07T04:47:13.962Z,3.90
2023-06-07T04:49:18.318Z,3.70
2023-06-07T04:51:21.738Z,3.90
2023-06-07T04:53:24.398Z,4.22
2023-06-07T04:55:29.380Z,3.70
2023-06-07T04:57:33.935Z,3.60
2023-06-07T04:59:43.821Z,3.75
2023-06-07T05:01:46.918Z,3.92
2023-06-07T05:03:50.725Z,3.88
2023-06-07T05:05:53.659Z,4.03
2023-06-07T05:07:56.545Z,3.70
2023-06-07T05:09:59.218Z,3.58
2023-06-07T05:12:02.135Z,3.70
2023-06-07T05:14:04.911Z,3.83
2023-06-07T05:16:12.644Z,3.97
2023-06-07T05:18:19.807Z,4.00
2023-06-07T05:20:25.904Z,3.60
2023-06-07T05:22:28.655Z,3.92
2023-06-07T05:24:31.684Z,3.90
2023-06-07T05:26:34.288Z,4.18
2023-06-07T05:28:37.073Z,3.63
2023-06-07T05:30:39.943Z,3.50
2023-06-07T05:32:44.165Z,3.75
2023-06-07T05:34:50.091Z,3.95
2023-06-07T05:36:52.955Z,3.72
2023-06-07T05:38:55.681Z,3.80
2023-06-07T05:40:58.425Z,3.67
2023-06-07T05:43:01.080Z,3.70
2023-06-07T05:45:03.807Z,4.15
2023-06-07T05:47:07.218Z,3.70
2023-06-07T05:49:11.401Z,3.83
2023-06-07T05:51:14.509Z,3.72
2023-06-07T05:53:17.880Z,3.67
2023-06-07T05:55:20.797Z,3.70
2023-06-07T05:57:23.539Z,3.67
2023-06-07T05:59:26.325Z,3.88
2023-06-07T06:01:30.312Z,3.80
2023-06-07T06:03:33.101Z,3.67
2023-06-07T06:05:37.328Z,3.80
2023-06-07T06:07:40.384Z,3.80
2023-06-07T06:09:43.371Z,3.30
2023-06-07T06:11:46.136Z,3.83
2023-06-07T06:13:49.676Z,3.97
2023-06-07T06:15:52.384Z,3.80
2023-06-07T06:17:56.052Z,3.70
2023-06-07T06:19:58.777Z,3.95
2023-06-07T06:22:02.766Z,3.90
2023-06-07T06:24:05.762Z,3.88
2023-06-07T06:26:08.459Z,4.05
2023-06-07T06:28:11.262Z,3.80
2023-06-07T06:30:14.410Z,4.05
2023-06-07T06:32:17.166Z,3.92
2023-06-07T06:34:19.951Z,3.70
2023-06-07T06:36:22.697Z,4.05
2023-06-07T06:38:26.981Z,4.20
2023-06-07T06:40:29.597Z,3.78
2023-06-07T06:42:32.252Z,3.92
2023-06-07T06:44:35.042Z,3.85
2023-06-07T06:46:38.148Z,3.80
2023-06-07T06:48:41.241Z,3.72
2023-06-07T06:50:45.630Z,3.80
2023-06-07T06:52:48.289Z,3.83
2023-06-07T06:54:52.371Z,3.97
2023-06-07T06:56:55.592Z,4.00
2023-06-07T06:58:58.298Z,4.22
2023-06-07T07:01:01.068Z,4.00
2023-06-07T07:03:03.826Z,4.00
2023-06-07T07:05:07.464Z,4.50
2023-06-07T07:07:10.064Z,5.30
2023-06-07T07:09:13.040Z,5.45
2023-06-07T07:11:17.042Z,5.13
2023-06-07T07:13:19.808Z,4.70
2023-06-07T07:15:22.613Z,4.80
2023-06-07T07:17:25.268Z,4.88
2023-06-07T07:19:27.969Z,4.57
2023-06-07T07:21:30.618Z,4.28
2023-06-07T07:23:33.260Z,4.57
2023-06-07T07:25:36.106Z,5.13
2023-06-07T07:27:40.142Z,5.05
2023-06-07T07:29:42.904Z,5.28
2023-06-07T07:31:45.791Z,5.03
2023-06-07T07:33:48.494Z,5.22
2023-06-07T07:35:52.231Z,4.80
2023-06-07T07:37:55.662Z,4.53
2023-06-07T07:39:58.309Z,5.45
2023-06-07T07:42:04.231Z,5.05
2023-06-07T07:44:08.214Z,4.65
2023-06-07T07:46:11.124Z,5.15
2023-06-07T07:48:14.107Z,5.40
2023-06-07T07:50:17.924Z,4.78
2023-06-07T07:52:22.453Z,4.35
2023-06-07T07:54:25.486Z,4.90
2023-06-07T07:56:28.198Z,5.25
2023-06-07T07:58:31.005Z,4.85
2023-06-07T08:00:35.408Z,4.80
2023-06-07T08:02:38.418Z,5.28
2023-06-07T08:04:41.334Z,5.15
2023-06-07T08:06:44.499Z,4.80
2023-06-07T08:08:47.761Z,6.05
2023-06-07T08:10:50.366Z,4.80
2023-06-07T08:12:53.058Z,5.40
2023-06-07T08:14:55.755Z,4.95
2023-06-07T08:16:59.801Z,5.72
2023-06-07T08:19:04.327Z,5.15
2023-06-07T08:21:07.408Z,5.05
2023-06-07T08:23:12.185Z,5.22
2023-06-07T08:25:15.129Z,4.75
2023-06-07T08:27:17.961Z,5.03
2023-06-07T08:29:22.916Z,5.13
2023-06-07T08:31:28.280Z,5.47
2023-06-07T08:33:32.719Z,5.47
2023-06-07T08:35:35.320Z,5.28
2023-06-07T08:37:37.931Z,5.22
2023-06-07T08:39:40.584Z,4.78
2023-06-07T08:41:43.339Z,5.25
2023-06-07T08:43:48.581Z,5.03
2023-06-07T08:45:51.781Z,4.90
2023-06-07T08:47:55.748Z,5.40
2023-06-07T08:49:59.802Z,4.75
2023-06-07T08:52:15.493Z,5.63
2023-06-07T08:54:22.457Z,5.47
2023-06-07T08:56:26.535Z,5.10
2023-06-07T08:58:29.598Z,4.95
2023-06-07T09:00:32.287Z,5.05
2023-06-07T09:02:34.967Z,5.40
2023-06-07T09:04:38.780Z,5.45
2023-06-07T09:06:44.301Z,5.03
2023-06-07T09:08:47.103Z,5.05
2023-06-07T09:10:49.699Z,5.22
2023-06-07T09:12:52.559Z,5.57
2023-06-07T09:17:04.176Z,5.13
2023-06-07T09:19:07.299Z,5.45
2023-06-07T09:21:19.967Z,4.90
2023-06-07T09:23:24.025Z,5.38
2023-06-07T09:25:26.713Z,4.93
2023-06-07T09:27:29.924Z,5.03
2023-06-07T09:29:40.107Z,5.07
2023-06-07T09:31:42.725Z,5.53
2023-06-07T09:33:47.560Z,5.30
2023-06-07T09:36:03.214Z,4.80
2023-06-07T09:38:07.741Z,5.03
2023-06-07T09:40:12.345Z,5.38
2023-06-07T09:44:27.410Z,5.20
2023-06-07T09:46:35.859Z,5.13
2023-06-07T09:48:48.233Z,5.40
2023-06-07T09:50:57.670Z,5.43
2023-06-07T09:53:02.397Z,4.88
2023-06-07T09:57:10.742Z,5.63
2023-06-07T09:59:14.663Z,4.80
2023-06-07T10:01:34.019Z,5.45
2023-06-07T10:03:45.440Z,5.78
2023-06-07T10:05:48.249Z,5.25
2023-06-07T10:07:51.724Z,5.05
2023-06-07T10:09:55.159Z,5.30
2023-06-07T10:11:58.950Z,5.03
2023-06-07T10:14:05.820Z,5.43
2023-06-07T10:16:11.462Z,5.60
2023-06-07T10:18:17.878Z,5.00
2023-06-07T10:20:25.675Z,5.90
2023-06-07T10:22:30.857Z,5.57
2023-06-07T10:24:35.172Z,6.15
2023-06-07T10:26:44.051Z,5.53
2023-06-07T10:28:51.429Z,5.65
2023-06-07T10:30:58.680Z,5.53
2023-06-07T10:33:01.912Z,5.65
2023-06-07T10:35:05.187Z,5.75
2023-06-07T10:37:09.417Z,5.72
2023-06-07T10:39:13.207Z,5.40
2023-06-07T10:41:16.065Z,5.00
2023-06-07T10:43:18.696Z,5.60
2023-06-07T10:45:21.657Z,5.40
2023-06-07T10:47:30.703Z,5.22
2023-06-07T10:49:37.274Z,5.40
2023-06-07T10:52:00.332Z,5.13
2023-06-07T10:54:03.581Z,4.68
2023-06-07T10:56:21.622Z,4.53
2023-06-07T10:58:27.834Z,4.55
2023-06-07T11:00:31.272Z,4.88
2023-06-07T11:02:35.681Z,4.75
2023-06-07T11:04:53.780Z,5.07
2023-06-07T11:07:15.115Z,4.63
2023-06-07T11:09:23.521Z,4.47
2023-06-07T11:11:50.982Z,4.47
2023-06-07T11:14:13.382Z,4.60
2023-06-07T11:16:35.967Z,5.20
2023-06-07T11:18:53.483Z,4.75
2023-06-07T11:20:58.720Z,5.03
2023-06-07T11:23:16.247Z,4.75
2023-06-07T11:25:19.068Z,4.30
2023-06-07T11:27:21.951Z,4.00
2023-06-07T11:29:24.841Z,3.97
2023-06-07T11:31:27.567Z,4.18
2023-06-07T11:33:31.500Z,4.13
2023-06-07T11:35:34.348Z,3.90
2023-06-07T11:37:38.443Z,4.05
2023-06-07T11:39:41.338Z,3.95
2023-06-07T11:41:45.214Z,3.78
2023-06-07T11:43:50.443Z,4.32
2023-06-07T11:45:56.345Z,3.70
2023-06-07T11:48:00.015Z,4.05
2023-06-07T11:50:03.117Z,4.03
2023-06-07T11:52:06.920Z,3.88
2023-06-07T11:54:11.069Z,4.32
2023-06-07T11:56:15.617Z,4.13
2023-06-07T11:58:18.271Z,3.90
2023-06-07T12:00:22.102Z,3.92
2023-06-07T12:02:24.790Z,4.00
2023-06-07T12:04:28.268Z,3.67
2023-06-07T12:06:30.952Z,3.85
2023-06-07T12:08:35.184Z,3.58
2023-06-07T12:10:39.444Z,3.70
2023-06-07T12:12:43.530Z,3.60
2023-06-07T12:14:47.125Z,3.85
2023-06-07T12:16:50.096Z,3.72
2023-06-07T12:18:53.037Z,3.50
2023-06-07T12:21:03.352Z,4.03
2023-06-07T12:23:06.199Z,3.58
2023-06-07T12:25:10.830Z,3.30
2023-06-07T12:27:17.651Z,3.60
2023-06-07T12:29:20.352Z,3.33
2023-06-07T12:31:24.356Z,3.95
2023-06-07T12:33:27.791Z,3.88
2023-06-07T12:35:36.274Z,4.30
2023-06-07T12:37:38.977Z,3.92
2023-06-07T12:39:41.576Z,3.90
2023-06-07T12:41:44.787Z,3.80
2023-06-07T12:43:48.917Z,4.25
2023-06-07T12:45:52.552Z,3.70
2023-06-07T12:47:55.623Z,3.65
2023-06-07T12:49:59.479Z,3.88
2023-06-07T12:52:03.205Z,3.60
2023-06-07T12:54:05.941Z,4.05
2023-06-07T12:56:08.645Z,4.03
2023-06-07T12:58:11.512Z,3.72
2023-06-07T13:00:16.239Z,3.80
2023-06-07T13:02:18.957Z,4.25
2023-06-07T13:04:21.907Z,3.30
2023-06-07T13:06:26.508Z,3.85
2023-06-07T13:08:29.372Z,3.47
2023-06-07T13:10:32.174Z,3.60
2023-06-07T13:12:35.059Z,4.05
2023-06-07T13:14:37.704Z,3.72
2023-06-07T13:16:41.867Z,3.60
2023-06-07T13:18:44.667Z,3.90
2023-06-07T13:20:47.394Z,3.92
2023-06-07T13:22:50.095Z,3.95
2023-06-07T13:24:52.887Z,4.05
2023-06-07T13:26:55.562Z,3.95
2023-06-07T13:28:58.333Z,4.13
2023-06-07T13:31:01.117Z,3.70
2023-06-07T13:33:16.642Z,3.38
2023-06-07T13:35:19.349Z,3.55
2023-06-07T13:37:22.024Z,3.50
2023-06-07T13:39:24.758Z,3.63
2023-06-07T13:41:30.480Z,3.72
2023-06-07T13:43:53.892Z,3.30
2023-06-07T13:45:57.421Z,3.70
2023-06-07T13:48:00.240Z,3.33
2023-06-07T13:50:06.461Z,3.80
2023-06-07T13:52:09.870Z,4.00
2023-06-07T13:54:13.002Z,3.92
2023-06-07T13:56:15.816Z,3.90
2023-06-07T13:58:18.927Z,3.55
2023-06-07T14:00:22.237Z,3.70
2023-06-07T14:02:25.386Z,3.70
2023-06-07T14:04:28.825Z,4.10
2023-06-07T14:06:32.890Z,3.63
2023-06-07T14:08:35.734Z,3.70
2023-06-07T14:10:38.738Z,3.60
2023-06-07T14:12:41.477Z,3.33
2023-06-07T14:14:44.263Z,3.72
2023-06-07T14:16:46.946Z,3.80
2023-06-07T14:18:49.823Z,3.58
2023-06-07T14:20:52.557Z,3.30
2023-06-07T14:22:56.726Z,3.65
2023-06-07T14:24:59.384Z,4.15
2023-06-07T14:27:02.140Z,3.70
2023-06-07T14:29:04.905Z,3.33
2023-06-07T14:31:07.651Z,3.38
2023-06-07T14:33:10.324Z,3.90
2023-06-07T14:35:13.070Z,3.65
2023-06-07T14:37:15.705Z,3.58
2023-06-07T14:39:19.709Z,3.83
2023-06-07T14:41:22.474Z,3.42
2023-06-07T14:43:25.120Z,3.67
2023-06-07T14:45:28.116Z,3.53
2023-06-07T14:47:31.080Z,3.47
2023-06-07T14:49:33.789Z,3.38
2023-06-07T14:51:36.440Z,3.60
2023-06-07T14:53:39.130Z,3.85
2023-06-07T14:55:43.267Z,3.80
2023-06-07T14:57:46.315Z,3.20
2023-06-07T14:59:49.014Z,3.67
2023-06-07T15:01:51.988Z,3.50
2023-06-07T15:03:54.952Z,3.83
2023-06-07T15:05:57.880Z,4.35
2023-06-07T15:08:00.532Z,3.45
2023-06-07T15:10:03.548Z,3.35
2023-06-07T15:12:08.376Z,3.30
2023-06-07T15:14:11.148Z,3.25
2023-06-07T15:16:14.139Z,5.45
2023-06-07T15:18:17.586Z,4.85
2023-06-07T15:20:20.254Z,4.75
2023-06-07T15:22:22.909Z,4.25
2023-06-07T15:24:26.189Z,4.18
2023-06-07T15:26:29.096Z,4.22
2023-06-07T15:28:33.116Z,6.32
2023-06-07T15:30:35.779Z,7.97
2023-06-07T15:32:38.493Z,13.70
2023-06-07T15:34:44.752Z,6.95
2023-06-07T15:36:47.660Z,9.52
2023-06-07T15:38:50.387Z,7.35
2023-06-07T15:40:53.702Z,5.80
2023-06-07T15:42:56.299Z,4.72
2023-06-07T15:45:00.345Z,5.35
2023-06-07T15:47:03.359Z,4.00
2023-06-07T15:49:06.173Z,4.57
2023-06-07T15:51:08.755Z,4.47
2023-06-07T15:53:11.446Z,5.32
2023-06-07T15:55:14.116Z,3.90
2023-06-07T15:57:17.225Z,3.53
2023-06-07T15:59:20.103Z,4.05
2023-06-07T16:01:24.220Z,3.55
2023-06-07T16:03:30.795Z,3.50
2023-06-07T16:05:38.296Z,3.30
2023-06-07T16:09:48.697Z,3.40
2023-06-07T16:11:51.511Z,3.60
2023-06-07T16:13:54.195Z,3.40
2023-06-07T16:15:56.828Z,3.30
2023-06-07T16:18:01.267Z,3.90
2023-06-07T16:20:04.973Z,3.42
2023-06-07T16:22:07.920Z,3.58
2023-06-07T16:24:11.420Z,3.60
2023-06-07T16:26:14.158Z,3.78
2023-06-07T16:28:17.811Z,3.80
2023-06-07T16:30:20.445Z,3.85
2023-06-07T16:32:23.491Z,3.53
2023-06-07T16:34:27.834Z,3.60
2023-06-07T16:36:30.810Z,3.40
2023-06-07T16:38:33.555Z,3.53
2023-06-07T16:40:36.205Z,3.88
2023-06-07T16:42:40.692Z,4.13
2023-06-07T16:44:43.581Z,3.67
2023-06-07T16:46:47.223Z,4.00
2023-06-07T16:48:50.096Z,3.47
2023-06-07T16:50:54.467Z,3.95
2023-06-07T16:52:57.138Z,3.20
2023-06-07T16:55:00.034Z,3.17
2023-06-07T16:57:02.695Z,3.60
2023-06-07T16:59:06.959Z,3.15
2023-06-07T17:01:09.935Z,3.38
2023-06-07T17:03:12.665Z,3.17
2023-06-07T17:05:15.697Z,3.10
2023-06-07T17:07:20.034Z,3.58
2023-06-07T17:09:22.685Z,3.30
2023-06-07T17:11:25.284Z,3.30
2023-06-07T17:13:27.931Z,3.08
2023-06-07T17:15:30.560Z,3.13
2023-06-07T17:17:33.378Z,3.03
2023-06-07T17:19:36.454Z,3.00
2023-06-07T17:21:39.220Z,3.28
2023-06-07T17:23:43.308Z,3.08
2023-06-07T17:25:45.902Z,2.90
2023-06-07T17:27:48.561Z,3.10
2023-06-07T17:29:51.225Z,3.08
2023-06-07T17:31:53.975Z,3.45
2023-06-07T17:33:59.701Z,3.25
2023-06-07T17:36:02.351Z,3.25
2023-06-07T17:38:05.216Z,3.00
2023-06-07T17:40:10.344Z,3.25
2023-06-07T17:42:19.126Z,2.80
2023-06-07T17:44:21.753Z,3.30
2023-06-07T17:46:24.429Z,3.28
2023-06-07T17:48:27.212Z,3.08
2023-06-07T17:50:45.243Z,3.10
2023-06-07T17:52:49.306Z,3.10
2023-06-07T17:54:51.991Z,3.10
2023-06-07T17:56:56.120Z,3.33
2023-06-07T17:58:58.838Z,3.20
2023-06-07T18:01:01.597Z,3.17
2023-06-07T18:03:05.068Z,3.20
2023-06-07T18:05:07.908Z,3.33
2023-06-07T18:07:10.716Z,3.20
2023-06-07T18:09:13.629Z,3.38
2023-06-07T18:11:16.295Z,3.33
2023-06-07T18:13:20.316Z,3.00
2023-06-07T18:15:22.981Z,3.05
2023-06-07T18:17:25.785Z,3.35
2023-06-07T18:19:28.488Z,3.05
2023-06-07T18:21:31.190Z,3.25
2023-06-07T18:23:33.860Z,3.30
2023-06-07T18:25:36.840Z,3.60
2023-06-07T18:27:39.676Z,3.28
2023-06-07T18:29:43.618Z,3.00
2023-06-07T18:31:46.439Z,3.50
2023-06-07T18:33:49.165Z,3.13
2023-06-07T18:35:52.224Z,3.55
2023-06-07T18:37:54.815Z,3.38
2023-06-07T18:39:57.437Z,3.28
2023-06-07T18:42:00.049Z,3.08
2023-06-07T18:44:02.713Z,3.40
2023-06-07T18:46:07.254Z,3.20
2023-06-07T18:48:10.265Z,3.35
2023-06-07T18:50:12.973Z,3.40
2023-06-07T18:52:15.652Z,2.95
2023-06-07T18:54:18.270Z,3.35
2023-06-07T18:56:22.724Z,2.72
2023-06-07T18:58:25.562Z,3.00
2023-06-07T19:00:28.400Z,3.42
2023-06-07T19:02:32.489Z,3.40
2023-06-07T19:04:35.386Z,3.38
2023-06-07T19:06:38.327Z,3.20
2023-06-07T19:08:42.866Z,3.45
2023-06-07T19:10:45.539Z,3.42
2023-06-07T19:12:48.373Z,3.30
2023-06-07T19:14:51.028Z,3.28
2023-06-07T19:16:53.831Z,3.10
2023-06-07T19:18:57.873Z,3.35
2023-06-07T19:21:00.546Z,3.38
2023-06-07T19:23:03.251Z,3.05
2023-06-07T19:25:06.579Z,2.72
2023-06-07T19:27:09.719Z,3.60
2023-06-07T19:29:12.391Z,3.55
2023-06-07T19:31:15.143Z,3.25
2023-06-07T19:33:17.801Z,3.05
2023-06-07T19:35:21.980Z,3.05
2023-06-07T19:37:24.601Z,3.20
2023-06-07T19:39:27.217Z,2.97
2023-06-07T19:41:29.866Z,2.97
2023-06-07T19:43:32.459Z,2.83
2023-06-07T19:45:35.072Z,2.90
2023-06-07T19:47:38.057Z,2.85
2023-06-07T19:49:42.535Z,3.00
2023-06-07T19:51:46.714Z,3.00
2023-06-07T19:53:49.284Z,3.22
2023-06-07T19:55:51.926Z,2.88
2023-06-07T19:57:55.521Z,3.20
2023-06-07T19:59:58.111Z,3.03
2023-06-07T20:02:05.249Z,2.92
2023-06-07T20:04:08.425Z,3.00
2023-06-07T20:06:11.188Z,3.00
2023-06-07T20:08:15.205Z,2.92
2023-06-07T20:10:17.990Z,2.95
2023-06-07T20:12:20.743Z,2.83
2023-06-07T20:14:23.586Z,2.92
2023-06-07T20:16:26.465Z,3.15
2023-06-07T20:18:29.150Z,2.65
2023-06-07T20:20:31.897Z,2.78
2023-06-07T20:22:34.815Z,2.80
2023-06-07T20:24:38.834Z,2.92
2023-06-07T20:26:44.333Z,2.88
2023-06-07T20:28:47.093Z,2.80
2023-06-07T20:30:49.917Z,3.25
2023-06-07T20:32:52.582Z,3.08
2023-06-07T20:34:55.375Z,3.17
2023-06-07T20:36:58.005Z,2.83
2023-06-07T20:39:00.653Z,2.80
2023-06-07T20:41:04.714Z,2.90
2023-06-07T20:43:07.430Z,2.75
2023-06-07T20:45:10.668Z,3.08
2023-06-07T20:47:13.288Z,2.90
2023-06-07T20:49:16.029Z,2.85
2023-06-07T20:51:18.667Z,3.00
2023-06-07T20:53:21.488Z,3.03
2023-06-07T20:55:26.537Z,2.83
2023-06-07T20:57:31.268Z,2.85
2023-06-07T20:59:35.241Z,2.80
2023-06-07T21:01:38.253Z,2.85
2023-06-07T21:03:41.211Z,2.40
2023-06-07T21:05:44.004Z,2.60
2023-06-07T21:07:46.755Z,2.70
2023-06-07T21:09:49.359Z,2.63
2023-06-07T21:11:51.989Z,2.95
2023-06-07T21:13:56.007Z,2.72
2023-06-07T21:15:59.156Z,2.80
2023-06-07T21:18:01.830Z,3.03
2023-06-07T21:20:05.206Z,3.05
2023-06-07T21:22:08.262Z,2.83
2023-06-07T21:24:11.127Z,2.67
2023-06-07T21:26:13.817Z,2.83
2023-06-07T21:28:16.403Z,2.97
2023-06-07T21:30:20.540Z,3.00
2023-06-07T21:32:23.337Z,3.20
2023-06-07T21:34:26.082Z,2.85
2023-06-07T21:36:29.188Z,2.85
2023-06-07T21:38:31.819Z,2.72
2023-06-07T21:40:34.562Z,3.08
2023-06-07T21:42:37.612Z,2.90
2023-06-07T21:44:40.353Z,3.08
2023-06-07T21:46:44.573Z,2.80
2023-06-07T21:48:47.358Z,2.58
2023-06-07T21:50:52.038Z,2.80
2023-06-07T21:52:55.879Z,2.60
2023-06-07T21:55:00.370Z,2.65
2023-06-07T21:57:02.965Z,2.53
2023-06-07T21:59:05.627Z,2.83
2023-06-07T22:01:08.327Z,2.38
2023-06-07T22:03:12.394Z,2.50
2023-06-07T22:05:16.050Z,2.88
2023-06-07T22:07:18.717Z,2.80
2023-06-07T22:09:21.487Z,2.72
2023-06-07T22:11:24.132Z,2.67
2023-06-07T22:13:26.864Z,2.60
2023-06-07T22:15:32.185Z,2.58
2023-06-07T22:17:35.246Z,2.67
2023-06-07T22:19:39.439Z,2.60
2023-06-07T22:21:42.057Z,2.50
2023-06-07T22:23:44.751Z,2.60
2023-06-07T22:25:47.419Z,2.60
2023-06-07T22:27:51.891Z,2.50
2023-06-07T22:29:54.562Z,2.95
2023-06-07T22:31:57.255Z,3.20
2023-06-07T22:34:04.304Z,2.78
2023-06-07T22:36:08.573Z,2.75
2023-06-07T22:38:13.303Z,2.55
2023-06-07T22:40:16.323Z,2.70
2023-06-07T22:42:18.925Z,3.10
2023-06-07T22:44:21.752Z,3.65
2023-06-07T22:46:24.605Z,2.58
2023-06-07T22:48:27.220Z,2.67
2023-06-07T22:50:35.061Z,2.78
2023-06-07T22:52:39.157Z,2.55
2023-06-07T22:54:41.874Z,2.80
2023-06-07T22:56:44.844Z,2.58
2023-06-07T22:58:47.601Z,2.53
2023-06-07T23:00:50.223Z,2.75
2023-06-07T23:02:53.082Z,2.45
2023-06-07T23:04:57.694Z,2.58
2023-06-07T23:07:00.590Z,2.65
2023-06-07T23:09:04.960Z,2.58
2023-06-07T23:11:07.769Z,2.60
2023-06-07T23:13:12.096Z,2.60
2023-06-07T23:15:16.442Z,2.78
2023-06-07T23:17:19.105Z,2.40
2023-06-07T23:19:21.888Z,2.45
2023-06-07T23:21:26.594Z,2.97
2023-06-07T23:23:30.486Z,2.53
2023-06-07T23:25:34.495Z,3.00
2023-06-07T23:27:37.360Z,2.63
2023-06-07T23:29:39.988Z,2.40
2023-06-07T23:31:42.732Z,2.60
2023-06-07T23:33:45.354Z,2.72
2023-06-07T23:35:48.152Z,2.67
2023-06-07T23:37:50.763Z,2.70
2023-06-07T23:39:53.385Z,2.60
2023-06-07T23:41:57.461Z,2.97
2023-06-07T23:44:00.415Z,2.58
2023-06-07T23:46:04.290Z,2.70
2023-06-07T23:48:07.696Z,2.92
2023-06-07T23:50:11.052Z,2.70
2023-06-07T23:52:13.834Z,2.60
2023-06-07T23:54:16.531Z,2.85
2023-06-07T23:56:19.236Z,2.50
2023-06-07T23:58:23.209Z,2.53
